Time;durP1;ratioP1;P1;durP2;ratioP2;P2;SDS_P1;SDS_P2;PMS_P1;PMS_P2;Temp;Humidity;BMP_temperature;BMP_pressure;BME280_temperature;BME280_humidity;BME280_pressure;Samples;Min_cycle;Max_cycle;Signal;HPM_P1;HPM_P2
2023/04/28 00:00:15;;;;;;;3.40;2.40;;;12.70;99.90;;;;;;5052996;28;20088;-44
2023/04/28 00:02:40;;;;;;;4.10;2.60;;;12.70;99.90;;;;;;5052967;28;20032;-44
2023/04/28 00:05:06;;;;;;;2.63;2.13;;;12.70;99.90;;;;;;5052845;28;20025;-44
2023/04/28 00:07:32;;;;;;;4.85;2.35;;;12.70;99.90;;;;;;5051993;28;20075;-45
2023/04/28 00:09:57;;;;;;;4.15;2.40;;;12.60;99.90;;;;;;5052697;28;20021;-45
2023/04/28 00:12:23;;;;;;;4.72;2.20;;;12.70;99.90;;;;;;5052755;28;20029;-44
2023/04/28 00:14:49;;;;;;;2.95;2.20;;;12.70;99.90;;;;;;5052776;28;20044;-44
2023/04/28 00:17:14;;;;;;;4.70;2.20;;;12.60;99.90;;;;;;5052121;28;20108;-44
2023/04/28 00:19:41;;;;;;;3.10;2.13;;;12.70;99.90;;;;;;5053119;28;20390;-44
2023/04/28 00:22:06;;;;;;;4.45;2.50;;;12.70;99.90;;;;;;5052450;28;20021;-44
2023/04/28 00:24:32;;;;;;;3.88;2.17;;;12.70;99.90;;;;;;5052353;28;20033;-45
2023/04/28 00:26:58;;;;;;;4.68;2.30;;;12.70;99.90;;;;;;5051889;28;20100;-45
2023/04/28 00:29:24;;;;;;;5.60;2.40;;;12.70;99.90;;;;;;5052456;28;20109;-47
2023/04/28 00:31:50;;;;;;;7.68;2.45;;;12.70;99.90;;;;;;5052680;28;20411;-45
2023/04/28 00:34:15;;;;;;;4.57;2.40;;;12.70;99.90;;;;;;5052403;28;20043;-44
2023/04/28 00:36:41;;;;;;;7.13;2.40;;;12.70;99.90;;;;;;5051706;28;20029;-44
2023/04/28 00:39:07;;;;;;;6.53;2.72;;;12.70;99.90;;;;;;5052319;28;20121;-45
2023/04/28 00:41:34;;;;;;;3.35;2.28;;;12.70;99.90;;;;;;5053401;28;20111;-47
2023/04/28 00:43:59;;;;;;;4.45;2.35;;;12.70;99.90;;;;;;5052847;28;20109;-44
2023/04/28 00:46:33;;;;;;;5.65;2.45;;;12.70;99.90;;;;;;5052669;28;20453;-44
2023/04/28 00:48:59;;;;;;;5.05;2.60;;;12.60;99.90;;;;;;5052049;28;20040;-44
2023/04/28 00:51:26;;;;;;;6.10;2.20;;;12.70;99.90;;;;;;5051776;28;20032;-45
2023/04/28 00:53:52;;;;;;;5.45;2.25;;;12.70;99.90;;;;;;5052721;28;20103;-47
2023/04/28 00:56:18;;;;;;;3.65;2.20;;;12.70;99.90;;;;;;5051690;28;20060;-46
2023/04/28 00:58:44;;;;;;;4.13;2.30;;;12.70;99.90;;;;;;5051874;28;20394;-44
2023/04/28 01:01:09;;;;;;;3.83;2.47;;;12.60;99.90;;;;;;5052134;28;20077;-45
2023/04/28 01:03:39;;;;;;;4.28;2.45;;;12.70;99.90;;;;;;5051548;28;20033;-45
2023/04/28 01:06:05;;;;;;;4.60;2.28;;;12.70;99.90;;;;;;5051878;28;20024;-44
2023/04/28 01:08:32;;;;;;;6.55;2.20;;;12.70;99.90;;;;;;5052136;28;20075;-47
2023/04/28 01:10:58;;;;;;;4.43;2.50;;;12.70;99.90;;;;;;5051921;28;20327;-46
2023/04/28 01:13:24;;;;;;;4.68;2.38;;;12.70;99.90;;;;;;5051605;28;20036;-46
2023/04/28 01:15:50;;;;;;;3.90;2.15;;;12.70;99.90;;;;;;5051059;28;20032;-43
2023/04/28 01:18:15;;;;;;;3.67;2.00;;;12.60;99.90;;;;;;5050829;28;20471;-45
2023/04/28 01:20:42;;;;;;;5.63;2.60;;;12.70;99.90;;;;;;5051883;28;20094;-44
2023/04/28 01:23:15;;;;;;;3.75;2.30;;;12.70;99.90;;;;;;5051416;28;20514;-45
2023/04/28 01:25:42;;;;;;;5.93;2.30;;;12.70;99.90;;;;;;5051094;28;20032;-46
2023/04/28 01:28:09;;;;;;;5.50;2.10;;;12.70;99.90;;;;;;5051191;28;20113;-47
2023/04/28 01:30:35;;;;;;;4.57;2.22;;;12.70;99.90;;;;;;5051376;28;20064;-45
2023/04/28 01:33:01;;;;;;;4.07;2.35;;;12.70;99.90;;;;;;5051702;28;20493;-44
2023/04/28 01:35:27;;;;;;;3.30;2.13;;;12.70;99.90;;;;;;5051362;28;20116;-45
2023/04/28 01:37:53;;;;;;;5.07;2.28;;;12.70;99.90;;;;;;5051397;28;20107;-44
2023/04/28 01:40:18;;;;;;;4.38;2.20;;;12.70;99.90;;;;;;5051202;28;20028;-45
2023/04/28 01:42:44;;;;;;;6.60;2.35;;;12.70;99.90;;;;;;5051237;28;20452;-44
2023/04/28 01:45:10;;;;;;;4.65;2.28;;;12.70;99.90;;;;;;5051125;28;20028;-45
2023/04/28 01:47:36;;;;;;;3.25;2.10;;;12.70;99.90;;;;;;5051122;28;20025;-46
2023/04/28 01:50:01;;;;;;;4.45;2.20;;;12.70;99.90;;;;;;5050963;28;20029;-44
2023/04/28 01:52:27;;;;;;;3.83;2.58;;;12.70;99.90;;;;;;5050994;28;20028;-44
2023/04/28 01:55:17;;;;;;;6.20;2.67;;;12.70;99.90;;;;;;5050996;28;20021;-44
2023/04/28 01:57:43;;;;;;;6.95;2.65;;;12.70;99.90;;;;;;5050712;28;20068;-44
2023/04/28 02:00:09;;;;;;;9.02;2.92;;;12.70;99.90;;;;;;5051226;28;20064;-44
2023/04/28 02:02:35;;;;;;;4.15;2.33;;;12.70;99.90;;;;;;5050728;28;20120;-44
2023/04/28 02:05:01;;;;;;;5.55;2.30;;;12.70;99.90;;;;;;5050788;28;20443;-45
2023/04/28 02:07:26;;;;;;;3.78;2.30;;;12.70;99.90;;;;;;5050182;28;20056;-45
2023/04/28 02:09:52;;;;;;;8.43;2.47;;;12.70;99.90;;;;;;5050799;28;20102;-44
2023/04/28 02:12:18;;;;;;;5.35;2.72;;;12.70;99.90;;;;;;5051949;28;20356;-44
2023/04/28 02:14:43;;;;;;;4.88;2.42;;;12.70;99.90;;;;;;5050647;28;20033;-44
2023/04/28 02:17:09;;;;;;;3.55;2.33;;;12.70;99.90;;;;;;5050129;28;20025;-44
2023/04/28 02:19:35;;;;;;;8.00;2.20;;;12.70;99.90;;;;;;5050684;28;20025;-44
2023/04/28 02:22:00;;;;;;;4.75;2.20;;;12.70;99.90;;;;;;5050745;28;20025;-46
2023/04/28 02:24:26;;;;;;;5.25;2.40;;;12.70;99.90;;;;;;5050555;28;20500;-47
2023/04/28 02:26:52;;;;;;;5.93;2.50;;;12.70;99.90;;;;;;5050079;28;20035;-47
2023/04/28 02:29:18;;;;;;;6.70;2.70;;;12.70;99.90;;;;;;5050517;28;20491;-47
2023/04/28 02:31:44;;;;;;;6.32;2.42;;;12.70;99.90;;;;;;5053410;28;20135;-46
2023/04/28 02:34:10;;;;;;;5.25;2.35;;;12.70;99.90;;;;;;5054539;28;20551;-47
2023/04/28 02:36:35;;;;;;;3.88;2.20;;;12.70;99.90;;;;;;5053972;28;20099;-45
2023/04/28 02:39:01;;;;;;;4.97;2.42;;;12.70;99.90;;;;;;5054660;28;20027;-44
2023/04/28 02:41:26;;;;;;;4.88;2.58;;;12.70;99.90;;;;;;5055227;28;20094;-47
2023/04/28 02:43:52;;;;;;;5.50;3.10;;;12.70;99.90;;;;;;5054469;28;20048;-44
2023/04/28 02:46:18;;;;;;;6.35;2.47;;;12.70;99.90;;;;;;5053759;28;20116;-46
2023/04/28 02:48:43;;;;;;;3.50;2.25;;;12.70;99.90;;;;;;5054267;28;20505;-45
2023/04/28 02:51:09;;;;;;;3.72;1.95;;;12.70;99.90;;;;;;5054225;28;20029;-44
2023/04/28 02:53:35;;;;;;;3.60;2.20;;;12.70;99.90;;;;;;5054217;28;20099;-47
2023/04/28 02:56:03;;;;;;;3.53;2.25;;;12.70;99.90;;;;;;5053706;28;20096;-44
2023/04/28 02:58:28;;;;;;;4.15;2.17;;;12.70;99.90;;;;;;5054017;28;20068;-44
2023/04/28 03:00:54;;;;;;;3.97;2.58;;;12.70;99.90;;;;;;5054133;28;20495;-45
2023/04/28 03:03:20;;;;;;;5.38;2.60;;;12.70;99.90;;;;;;5053911;28;20033;-42
2023/04/28 03:05:45;;;;;;;3.80;2.13;;;12.70;99.90;;;;;;5053873;28;20422;-44
2023/04/28 03:08:11;;;;;;;7.75;2.70;;;12.70;99.90;;;;;;5053888;28;20031;-44
2023/04/28 03:10:36;;;;;;;6.22;2.80;;;12.70;99.90;;;;;;5054297;28;20204;-44
2023/04/28 03:13:02;;;;;;;3.20;2.00;;;12.70;99.90;;;;;;5055125;28;20083;-45
2023/04/28 03:15:28;;;;;;;4.03;2.17;;;12.60;99.90;;;;;;5054874;28;20455;-45
2023/04/28 03:17:53;;;;;;;6.95;2.33;;;12.70;99.90;;;;;;5053445;28;20514;-44
2023/04/28 03:20:19;;;;;;;4.22;2.35;;;12.70;99.90;;;;;;5054944;28;20031;-44
2023/04/28 03:22:44;;;;;;;3.95;2.70;;;12.70;99.90;;;;;;5053961;28;20398;-45
2023/04/28 03:25:10;;;;;;;5.35;2.67;;;12.70;99.90;;;;;;5053625;28;20040;-45
2023/04/28 03:27:36;;;;;;;3.85;2.72;;;12.70;99.90;;;;;;5052939;28;20108;-44
2023/04/28 03:30:01;;;;;;;2.83;2.08;;;12.70;99.90;;;;;;5053803;28;20029;-45
2023/04/28 03:32:27;;;;;;;4.05;2.40;;;12.70;99.90;;;;;;5053501;28;20021;-44
2023/04/28 03:34:52;;;;;;;3.55;2.10;;;12.70;99.90;;;;;;5053462;28;20415;-45
2023/04/28 03:37:18;;;;;;;3.60;2.20;;;12.70;99.90;;;;;;5051560;28;20029;-44
2023/04/28 03:39:44;;;;;;;4.70;2.08;;;12.70;99.90;;;;;;5055015;28;20082;-44
2023/04/28 03:42:10;;;;;;;5.05;2.22;;;12.70;99.90;;;;;;5052591;28;20032;-44
2023/04/28 03:44:35;;;;;;;3.95;2.10;;;12.70;99.90;;;;;;5052327;28;20446;-44
2023/04/28 03:47:01;;;;;;;2.88;1.85;;;12.70;99.90;;;;;;5052691;28;20025;-44
2023/04/28 03:49:26;;;;;;;3.63;2.28;;;12.70;99.90;;;;;;5053229;28;20430;-44
2023/04/28 03:51:52;;;;;;;6.10;2.15;;;12.70;99.90;;;;;;5053246;28;20391;-45
2023/04/28 03:54:18;;;;;;;3.28;2.00;;;12.70;99.90;;;;;;5053554;28;20106;-45
2023/04/28 03:56:44;;;;;;;2.95;2.08;;;12.70;99.90;;;;;;5053704;28;20048;-43
2023/04/28 03:59:11;;;;;;;2.80;1.98;;;12.70;99.90;;;;;;5052959;28;20040;-44
2023/04/28 04:01:36;;;;;;;3.55;2.10;;;12.70;99.90;;;;;;5052904;28;20222;-44
2023/04/28 04:04:03;;;;;;;5.68;1.83;;;12.70;99.90;;;;;;5052714;28;20047;-46
2023/04/28 04:06:28;;;;;;;4.20;2.22;;;12.70;99.90;;;;;;5052291;28;20025;-44
2023/04/28 04:08:54;;;;;;;4.63;2.30;;;12.70;99.90;;;;;;5052815;28;20021;-46
2023/04/28 04:11:20;;;;;;;4.30;2.28;;;12.70;99.90;;;;;;5052639;28;20023;-44
2023/04/28 04:13:46;;;;;;;2.92;2.10;;;12.70;99.90;;;;;;5053729;28;20534;-43
2023/04/28 04:16:14;;;;;;;4.13;2.20;;;12.70;99.90;;;;;;5052810;28;20029;-44
2023/04/28 04:18:40;;;;;;;5.25;2.17;;;12.70;99.90;;;;;;5052741;28;20035;-43
2023/04/28 04:21:05;;;;;;;2.58;2.00;;;12.70;99.90;;;;;;5052917;28;20107;-44
2023/04/28 04:23:31;;;;;;;2.63;1.90;;;12.70;99.90;;;;;;5052583;28;20121;-45
2023/04/28 04:25:56;;;;;;;3.03;2.00;;;12.70;99.90;;;;;;5052697;28;20029;-45
2023/04/28 04:28:22;;;;;;;5.57;2.25;;;12.70;99.90;;;;;;5053199;28;20021;-43
2023/04/28 04:30:48;;;;;;;4.93;2.35;;;12.60;99.90;;;;;;5053977;28;20060;-47
2023/04/28 04:33:13;;;;;;;3.92;2.33;;;12.70;99.90;;;;;;5052690;28;20108;-44
2023/04/28 04:35:39;;;;;;;3.65;2.10;;;12.70;99.90;;;;;;5052237;28;20510;-44
2023/04/28 04:38:06;;;;;;;2.97;2.15;;;12.70;99.90;;;;;;5052111;28;20263;-44
2023/04/28 04:40:31;;;;;;;3.22;2.28;;;12.70;99.90;;;;;;5052146;28;20021;-44
2023/04/28 04:42:57;;;;;;;3.42;1.90;;;12.70;99.90;;;;;;5052174;28;20027;-47
2023/04/28 04:45:23;;;;;;;2.85;2.00;;;12.70;99.90;;;;;;5052102;28;20433;-44
2023/04/28 04:47:48;;;;;;;2.45;1.95;;;12.70;99.90;;;;;;5051543;28;20037;-45
2023/04/28 04:50:14;;;;;;;2.22;1.88;;;12.70;99.90;;;;;;5052343;28;20240;-44
2023/04/28 04:52:40;;;;;;;3.15;2.38;;;12.70;99.90;;;;;;5051655;28;20129;-44
2023/04/28 04:55:06;;;;;;;3.58;1.95;;;12.70;99.90;;;;;;5051439;28;20399;-45
2023/04/28 04:57:32;;;;;;;3.88;2.40;;;12.70;99.90;;;;;;5051314;28;20096;-46
2023/04/28 04:59:57;;;;;;;2.67;1.70;;;12.70;99.90;;;;;;5052251;28;20025;-43
2023/04/28 05:02:23;;;;;;;4.25;2.03;;;12.70;99.90;;;;;;5052377;28;20502;-44
2023/04/28 05:04:48;;;;;;;2.38;1.70;;;12.70;99.90;;;;;;5051670;28;20029;-46
2023/04/28 05:07:14;;;;;;;3.00;2.00;;;12.70;99.90;;;;;;5051496;28;20028;-47
2023/04/28 05:09:39;;;;;;;2.90;2.28;;;12.70;99.90;;;;;;5051649;28;20072;-47
2023/04/28 05:12:05;;;;;;;3.65;2.10;;;12.70;99.90;;;;;;5051556;28;20471;-46
2023/04/28 05:14:31;;;;;;;2.92;1.80;;;12.70;99.90;;;;;;5052027;28;20048;-45
2023/04/28 05:16:56;;;;;;;3.20;2.15;;;12.70;99.90;;;;;;5051167;28;20435;-45
2023/04/28 05:19:22;;;;;;;3.60;2.28;;;12.70;99.90;;;;;;5052170;28;20055;-45
2023/04/28 05:21:49;;;;;;;3.30;1.90;;;12.70;99.90;;;;;;5054653;28;20077;-47
2023/04/28 05:24:15;;;;;;;2.78;1.70;;;12.70;99.90;;;;;;5053095;28;20056;-44
2023/04/28 05:26:41;;;;;;;2.88;1.70;;;12.70;99.90;;;;;;5051498;28;20032;-45
2023/04/28 05:29:07;;;;;;;3.78;2.03;;;12.70;99.90;;;;;;5052359;28;20029;-44
2023/04/28 05:31:33;;;;;;;3.00;2.05;;;12.70;99.90;;;;;;5052134;28;20061;-43
2023/04/28 05:33:58;;;;;;;4.47;2.20;;;12.70;99.90;;;;;;5051709;28;20110;-44
2023/04/28 05:36:25;;;;;;;7.15;1.95;;;12.70;99.90;;;;;;5051007;28;20029;-44
2023/04/28 05:38:51;;;;;;;5.43;2.15;;;12.70;99.90;;;;;;5053275;28;20040;-43
2023/04/28 05:41:16;;;;;;;2.97;2.08;;;12.70;99.90;;;;;;5051886;28;20021;-44
2023/04/28 05:43:42;;;;;;;2.30;1.77;;;12.70;99.90;;;;;;5051147;28;20060;-47
2023/04/28 05:46:07;;;;;;;2.83;1.75;;;12.70;99.90;;;;;;5052759;28;20029;-44
2023/04/28 05:48:33;;;;;;;3.83;2.00;;;12.70;99.90;;;;;;5052213;28;20090;-45
2023/04/28 05:50:59;;;;;;;3.55;2.42;;;12.70;99.90;;;;;;5052736;28;20458;-47
2023/04/28 05:53:25;;;;;;;4.22;2.05;;;12.70;99.90;;;;;;5051401;28;20028;-45
2023/04/28 05:55:51;;;;;;;2.67;2.00;;;12.70;99.90;;;;;;5051231;28;20029;-43
2023/04/28 05:58:17;;;;;;;3.30;2.38;;;12.70;99.90;;;;;;5051046;28;20039;-41
2023/04/28 06:00:42;;;;;;;10.30;3.50;;;12.70;99.90;;;;;;5050823;28;20032;-44
2023/04/28 06:03:09;;;;;;;6.25;3.13;;;12.80;99.90;;;;;;5050773;28;20037;-45
2023/04/28 06:05:36;;;;;;;9.35;3.13;;;12.80;99.90;;;;;;5050983;28;20028;-40
2023/04/28 06:08:02;;;;;;;4.57;2.55;;;12.80;99.90;;;;;;5050910;28;20097;-43
2023/04/28 06:10:28;;;;;;;11.85;3.00;;;12.80;99.90;;;;;;5051290;28;20021;-44
2023/04/28 06:12:53;;;;;;;4.93;2.83;;;12.70;99.90;;;;;;5050907;28;20032;-44
2023/04/28 06:15:19;;;;;;;5.50;2.75;;;12.70;99.90;;;;;;5051110;28;20029;-42
2023/04/28 06:17:45;;;;;;;4.45;2.85;;;12.70;99.90;;;;;;5050994;28;20033;-44
2023/04/28 06:20:12;;;;;;;3.70;2.55;;;12.70;99.90;;;;;;5051318;28;20033;-45
2023/04/28 06:22:39;;;;;;;3.88;2.80;;;12.80;99.90;;;;;;5051513;28;20021;-44
2023/04/28 06:25:05;;;;;;;4.60;2.60;;;12.80;99.90;;;;;;5051232;28;20082;-44
2023/04/28 06:27:31;;;;;;;6.20;3.17;;;12.70;99.90;;;;;;5050695;28;20376;-44
2023/04/28 06:29:57;;;;;;;3.83;2.80;;;12.70;99.90;;;;;;5050396;28;20467;-45
2023/04/28 06:32:23;;;;;;;4.20;2.63;;;12.80;99.90;;;;;;5051238;28;20039;-44
2023/04/28 06:34:49;;;;;;;7.15;2.78;;;12.70;99.90;;;;;;5051169;28;20471;-43
2023/04/28 06:37:15;;;;;;;6.28;3.05;;;12.70;99.90;;;;;;5049883;28;20032;-43
2023/04/28 06:39:40;;;;;;;4.85;2.85;;;12.70;99.90;;;;;;5051264;28;20359;-44
2023/04/28 06:42:06;;;;;;;9.98;2.85;;;12.80;99.90;;;;;;5050944;28;20025;-43
2023/04/28 06:44:31;;;;;;;5.00;2.42;;;12.80;99.90;;;;;;5051473;28;20029;-42
2023/04/28 06:46:57;;;;;;;5.05;2.90;;;12.80;99.90;;;;;;5050574;28;20394;-40
2023/04/28 06:49:23;;;;;;;4.50;2.60;;;12.80;99.90;;;;;;5050701;28;20020;-43
2023/04/28 06:51:48;;;;;;;4.35;2.30;;;12.80;99.90;;;;;;5050255;28;20021;-43
2023/04/28 06:54:15;;;;;;;8.80;2.55;;;12.80;99.90;;;;;;5051002;28;20033;-39
2023/04/28 06:56:41;;;;;;;3.17;2.20;;;12.80;99.90;;;;;;5050061;28;20471;-41
2023/04/28 06:59:07;;;;;;;5.47;2.50;;;12.80;99.90;;;;;;5051241;28;20051;-44
2023/04/28 07:01:32;;;;;;;3.50;2.53;;;12.80;99.90;;;;;;5051320;28;20509;-44
2023/04/28 07:03:58;;;;;;;4.05;2.80;;;12.80;99.90;;;;;;5050440;28;20033;-44
2023/04/28 07:06:26;;;;;;;4.45;2.45;;;12.80;99.90;;;;;;5050077;28;20073;-44
2023/04/28 07:08:52;;;;;;;3.42;2.30;;;12.70;99.90;;;;;;5051569;28;20068;-44
2023/04/28 07:11:17;;;;;;;3.65;2.58;;;12.80;99.90;;;;;;5050806;28;20494;-44
2023/04/28 07:13:48;;;;;;;4.70;2.63;;;12.80;99.90;;;;;;5051215;28;20021;-44
2023/04/28 07:16:14;;;;;;;5.00;2.60;;;12.80;99.90;;;;;;5050583;28;20483;-44
2023/04/28 07:18:40;;;;;;;5.07;2.40;;;12.80;99.90;;;;;;5054641;28;20032;-44
2023/04/28 07:21:05;;;;;;;2.97;2.53;;;12.70;99.90;;;;;;5054098;28;20020;-42
2023/04/28 07:23:31;;;;;;;3.50;2.55;;;12.80;99.90;;;;;;5053651;28;20471;-43
2023/04/28 07:25:57;;;;;;;3.55;2.35;;;12.80;99.90;;;;;;5053053;28;20408;-44
2023/04/28 07:28:23;;;;;;;6.47;2.80;;;12.80;99.90;;;;;;5053497;28;20023;-44
2023/04/28 07:30:48;;;;;;;6.25;2.88;;;12.80;99.90;;;;;;5053971;28;20445;-44
2023/04/28 07:33:14;;;;;;;6.20;2.47;;;12.80;99.90;;;;;;5053454;28;20082;-44
2023/04/28 07:35:40;;;;;;;5.18;2.72;;;12.80;99.90;;;;;;5053138;28;20192;-44
2023/04/28 07:38:06;;;;;;;5.00;2.40;;;12.80;99.90;;;;;;5053446;28;20044;-44
2023/04/28 07:40:32;;;;;;;4.00;2.38;;;12.80;99.90;;;;;;5053459;28;20068;-42
2023/04/28 07:42:58;;;;;;;3.95;2.50;;;12.80;99.90;;;;;;5054121;28;20056;-45
2023/04/28 07:45:23;;;;;;;3.78;2.20;;;12.80;99.90;;;;;;5053924;28;20036;-45
2023/04/28 07:47:49;;;;;;;4.93;2.28;;;12.80;99.90;;;;;;5053590;28;20036;-44
2023/04/28 07:50:16;;;;;;;6.50;2.33;;;12.80;99.90;;;;;;5053677;28;20033;-44
2023/04/28 07:52:42;;;;;;;4.18;2.40;;;12.80;99.90;;;;;;5053935;28;20016;-45
2023/04/28 07:55:07;;;;;;;3.85;2.10;;;12.80;99.90;;;;;;5053636;28;20021;-44
2023/04/28 07:57:34;;;;;;;3.72;2.30;;;12.80;99.90;;;;;;5053418;28;20032;-44
2023/04/28 08:00:00;;;;;;;4.75;2.28;;;12.80;99.90;;;;;;5054994;28;20029;-44
2023/04/28 08:02:26;;;;;;;4.93;2.40;;;12.80;99.90;;;;;;5053904;28;20372;-44
2023/04/28 08:04:51;;;;;;;4.32;2.22;;;12.80;99.90;;;;;;5052926;28;20025;-45
2023/04/28 08:07:17;;;;;;;4.53;2.35;;;12.80;99.90;;;;;;5053103;28;20121;-41
2023/04/28 08:09:46;;;;;;;4.18;2.78;;;12.80;99.90;;;;;;5052821;28;20025;-45
2023/04/28 08:12:12;;;;;;;4.05;2.40;;;12.80;99.90;;;;;;5052763;28;20025;-42
2023/04/28 08:14:37;;;;;;;5.28;3.10;;;12.80;99.90;;;;;;5052818;28;20494;-44
2023/04/28 08:17:03;;;;;;;4.40;2.70;;;12.80;99.90;;;;;;5052217;28;20021;-45
2023/04/28 08:19:29;;;;;;;3.35;2.28;;;12.80;99.90;;;;;;5052906;28;20099;-41
2023/04/28 08:21:54;;;;;;;5.10;2.80;;;12.80;99.90;;;;;;5052832;28;20025;-45
2023/04/28 08:24:20;;;;;;;3.75;2.35;;;12.80;99.90;;;;;;5053026;28;20531;-43
2023/04/28 08:26:45;;;;;;;3.13;2.35;;;12.80;99.90;;;;;;5052075;28;20471;-43
2023/04/28 08:29:11;;;;;;;2.65;2.10;;;12.80;99.90;;;;;;5053668;28;20035;-45
2023/04/28 08:31:37;;;;;;;3.83;2.38;;;12.80;99.90;;;;;;5052721;28;20059;-42
2023/04/28 08:34:03;;;;;;;4.07;2.35;;;12.80;99.90;;;;;;5052648;28;20387;-43
2023/04/28 08:36:31;;;;;;;2.45;2.10;;;12.80;99.90;;;;;;5052120;28;20025;-44
2023/04/28 08:39:02;;;;;;;2.85;1.92;;;12.80;99.90;;;;;;5052498;28;20027;-43
2023/04/28 08:41:31;;;;;;;2.92;2.40;;;12.80;99.90;;;;;;5052695;28;20027;-41
2023/04/28 08:43:57;;;;;;;3.65;2.08;;;12.80;99.90;;;;;;5051462;28;20017;-45
2023/04/28 08:46:26;;;;;;;2.83;2.03;;;12.80;99.90;;;;;;5051646;28;20204;-43
2023/04/28 08:49:00;;;;;;;2.95;2.05;;;12.90;99.90;;;;;;5052317;28;20082;-41
2023/04/28 08:51:37;;;;;;;5.70;2.30;;;12.90;99.90;;;;;;5052256;28;20471;-42
2023/04/28 08:54:04;;;;;;;3.25;1.90;;;12.90;99.90;;;;;;5052069;28;20036;-41
2023/04/28 08:56:33;;;;;;;2.70;1.98;;;12.90;99.90;;;;;;5051662;28;20437;-40
2023/04/28 08:59:06;;;;;;;4.20;1.80;;;12.90;99.90;;;;;;5051929;28;20017;-44
2023/04/28 09:01:31;;;;;;;4.82;2.17;;;12.90;99.90;;;;;;5051950;28;20113;-43
2023/04/28 09:04:01;;;;;;;4.35;1.80;;;12.90;99.90;;;;;;5051682;28;20115;-44
2023/04/28 09:06:30;;;;;;;2.83;1.70;;;12.90;99.90;;;;;;5051308;28;20024;-45
2023/04/28 09:08:56;;;;;;;2.45;1.65;;;12.90;99.90;;;;;;5051810;28;20074;-42
2023/04/28 09:11:22;;;;;;;2.75;1.80;;;12.90;99.90;;;;;;5051519;28;20017;-44
2023/04/28 09:13:48;;;;;;;4.47;1.90;;;12.90;99.90;;;;;;5051648;28;20021;-43
2023/04/28 09:16:13;;;;;;;3.00;1.65;;;12.90;99.90;;;;;;5051338;28;20028;-44
2023/04/28 09:18:54;;;;;;;2.45;1.52;;;12.90;99.90;;;;;;5051853;28;20036;-40
2023/04/28 09:21:20;;;;;;;2.88;1.50;;;12.90;99.90;;;;;;5051726;28;20381;-44
2023/04/28 09:23:48;;;;;;;2.05;1.50;;;12.90;99.90;;;;;;5051661;28;20395;-45
2023/04/28 09:26:13;;;;;;;1.65;1.30;;;12.90;99.90;;;;;;5050918;28;20036;-44
2023/04/28 09:28:39;;;;;;;1.70;1.35;;;12.90;99.90;;;;;;5051530;28;20025;-41
2023/04/28 09:31:05;;;;;;;2.60;1.42;;;12.90;99.90;;;;;;5051751;28;20031;-44
2023/04/28 09:33:31;;;;;;;2.75;1.65;;;13.00;99.90;;;;;;5051520;28;20021;-44
2023/04/28 09:35:56;;;;;;;1.95;1.40;;;12.90;99.90;;;;;;5050826;28;20057;-42
2023/04/28 09:38:22;;;;;;;2.80;1.42;;;13.00;99.90;;;;;;5051181;28;20028;-44
2023/04/28 09:41:08;;;;;;;1.55;1.08;;;12.90;99.90;;;;;;5050853;28;20036;-45
2023/04/28 09:43:34;;;;;;;2.00;1.38;;;13.00;99.90;;;;;;5051226;28;20041;-45
2023/04/28 09:46:04;;;;;;;3.17;1.50;;;13.00;99.90;;;;;;5051415;28;20108;-43
2023/04/28 09:48:35;;;;;;;1.70;1.30;;;13.00;99.90;;;;;;5051456;28;20017;-43
2023/04/28 09:51:06;;;;;;;1.38;1.20;;;13.00;99.90;;;;;;5050943;28;20029;-42
2023/04/28 09:53:33;;;;;;;2.25;1.30;;;13.00;99.90;;;;;;5051018;28;20067;-41
2023/04/28 09:56:00;;;;;;;1.73;1.20;;;13.00;99.90;;;;;;5050839;28;20025;-44
2023/04/28 09:58:27;;;;;;;1.75;1.13;;;13.00;99.90;;;;;;5051468;28;20028;-44
2023/04/28 10:00:55;;;;;;;1.33;1.15;;;13.00;99.90;;;;;;5051780;28;20025;-41
2023/04/28 10:03:26;;;;;;;1.50;1.15;;;13.00;99.90;;;;;;5051166;28;20056;-43
2023/04/28 10:05:52;;;;;;;1.40;1.15;;;13.00;99.90;;;;;;5050551;28;20060;-41
2023/04/28 10:08:22;;;;;;;1.55;1.00;;;13.00;99.90;;;;;;5050656;28;20025;-42
2023/04/28 10:10:49;;;;;;;2.17;1.15;;;13.00;99.90;;;;;;5050880;28;20021;-44
2023/04/28 10:13:16;;;;;;;1.65;1.10;;;13.10;99.90;;;;;;5050840;28;20024;-44
2023/04/28 10:15:42;;;;;;;1.10;0.90;;;13.10;99.90;;;;;;5050696;28;20108;-44
2023/04/28 10:18:09;;;;;;;2.15;1.00;;;13.10;99.90;;;;;;5050424;28;20082;-44
2023/04/28 10:20:35;;;;;;;1.50;1.00;;;13.10;99.90;;;;;;5051064;28;20191;-43
2023/04/28 10:23:19;;;;;;;1.85;1.05;;;13.10;99.90;;;;;;5050938;28;20029;-44
2023/04/28 10:25:48;;;;;;;1.30;1.00;;;13.10;99.90;;;;;;5050569;28;20122;-44
2023/04/28 10:28:14;;;;;;;1.77;0.93;;;13.10;99.90;;;;;;5050947;28;20028;-37
2023/04/28 10:30:40;;;;;;;1.30;0.90;;;13.10;99.90;;;;;;5050648;28;20025;-45
2023/04/28 10:33:15;;;;;;;1.10;0.80;;;13.10;99.90;;;;;;5051012;28;20025;-45
2023/04/28 10:35:45;;;;;;;1.30;0.90;;;13.10;99.90;;;;;;5050424;28;20037;-44
2023/04/28 10:38:20;;;;;;;1.00;0.90;;;13.10;99.90;;;;;;5050480;28;20487;-44
2023/04/28 10:40:47;;;;;;;1.27;1.00;;;13.20;99.90;;;;;;5050856;28;20119;-44
2023/04/28 10:43:29;;;;;;;1.08;0.90;;;13.20;99.90;;;;;;5050158;28;20032;-44
2023/04/28 10:46:00;;;;;;;1.00;0.80;;;13.20;99.90;;;;;;5050269;28;20544;-40
2023/04/28 10:48:29;;;;;;;2.40;0.90;;;13.20;99.90;;;;;;5051000;28;20036;-39
2023/04/28 10:51:08;;;;;;;2.58;0.80;;;13.20;99.90;;;;;;5050510;28;20497;-44
2023/04/28 10:53:43;;;;;;;2.08;0.82;;;13.20;99.90;;;;;;5054431;28;20074;-44
2023/04/28 10:56:20;;;;;;;1.25;0.80;;;13.20;99.90;;;;;;5054067;28;20478;-42
2023/04/28 10:58:49;;;;;;;1.30;0.80;;;13.20;99.90;;;;;;5054232;28;20036;-42
2023/04/28 11:01:18;;;;;;;0.93;0.63;;;13.20;99.90;;;;;;5054119;28;20438;-43
2023/04/28 11:03:47;;;;;;;1.00;0.70;;;13.20;99.90;;;;;;5054021;28;20402;-44
2023/04/28 11:06:27;;;;;;;1.45;0.75;;;13.20;99.90;;;;;;5053475;28;20510;-44
2023/04/28 11:09:23;;;;;;;1.45;0.73;;;13.20;99.90;;;;;;5054068;28;20025;-45
2023/04/28 11:12:05;;;;;;;2.65;0.88;;;13.20;99.90;;;;;;5053720;28;20108;-43
2023/04/28 11:14:34;;;;;;;1.25;0.70;;;13.20;99.90;;;;;;5054154;28;20061;-44
2023/04/28 11:17:01;;;;;;;0.80;0.60;;;13.30;99.90;;;;;;5053320;28;20548;-42
2023/04/28 11:19:37;;;;;;;0.60;0.60;;;13.20;99.90;;;;;;5053890;28;20446;-42
2023/04/28 11:22:14;;;;;;;0.77;0.73;;;13.30;99.90;;;;;;5053845;28;20021;-44
2023/04/28 11:24:39;;;;;;;1.48;0.90;;;13.20;99.90;;;;;;5053735;28;20387;-44
2023/04/28 11:27:05;;;;;;;1.88;0.88;;;13.20;99.90;;;;;;5053170;28;20172;-39
2023/04/28 11:29:35;;;;;;;1.48;0.75;;;13.30;99.90;;;;;;5053424;28;20029;-43
2023/04/28 11:32:08;;;;;;;1.35;0.90;;;13.30;99.90;;;;;;5053571;28;20047;-43
2023/04/28 11:34:35;;;;;;;0.90;0.65;;;13.20;99.90;;;;;;5054024;28;20021;-38
2023/04/28 11:37:00;;;;;;;0.52;0.50;;;13.30;99.90;;;;;;5052819;28;20117;-44
2023/04/28 11:39:32;;;;;;;0.55;0.47;;;13.30;99.90;;;;;;5053405;28;20111;-45
2023/04/28 11:42:08;;;;;;;1.10;0.80;;;13.20;99.90;;;;;;5053606;28;20555;-44
2023/04/28 11:44:33;;;;;;;0.93;0.55;;;13.30;99.90;;;;;;5053416;28;20041;-44
2023/04/28 11:47:01;;;;;;;0.90;0.57;;;13.30;99.90;;;;;;5052728;28;20108;-43
2023/04/28 11:49:40;;;;;;;0.70;0.60;;;13.20;99.90;;;;;;5053346;28;20025;-44
2023/04/28 11:52:07;;;;;;;0.90;0.50;;;13.30;99.90;;;;;;5053257;28;20063;-44
2023/04/28 11:54:33;;;;;;;0.65;0.60;;;13.30;99.90;;;;;;5053252;28;20487;-43
2023/04/28 11:57:06;;;;;;;0.70;0.50;;;13.30;99.90;;;;;;5052966;28;20379;-44
2023/04/28 11:59:33;;;;;;;1.63;0.60;;;13.20;99.90;;;;;;5053110;28;20577;-41
2023/04/28 12:02:06;;;;;;;2.20;0.50;;;13.30;99.90;;;;;;5052700;28;20391;-39
2023/04/28 12:04:43;;;;;;;0.20;0.20;;;13.30;99.90;;;;;;5052996;28;20422;-41
2023/04/28 12:07:15;;;;;;;1.02;0.50;;;13.30;99.90;;;;;;5052203;28;20451;-43
2023/04/28 12:09:47;;;;;;;0.80;0.47;;;13.40;99.90;;;;;;5052902;28;20502;-42
2023/04/28 12:12:15;;;;;;;0.88;0.30;;;13.30;99.90;;;;;;5052760;28;20415;-44
2023/04/28 12:15:16;;;;;;;0.43;0.40;;;13.40;99.90;;;;;;5052772;28;20021;-43
2023/04/28 12:17:42;;;;;;;1.20;0.40;;;13.40;99.90;;;;;;5029741;28;20025;-41
2023/04/28 12:20:31;;;;;;;0.82;0.47;;;13.40;99.90;;;;;;5047995;28;20036;-43
2023/04/28 12:22:57;;;;;;;1.42;0.70;;;13.40;99.90;;;;;;5052574;28;20040;-41
2023/04/28 12:25:23;;;;;;;0.70;0.40;;;13.40;99.90;;;;;;5052464;28;20021;-44
2023/04/28 12:28:06;;;;;;;1.23;0.52;;;13.40;99.90;;;;;;5051948;28;20025;-41
2023/04/28 12:30:33;;;;;;;1.00;0.47;;;13.40;99.90;;;;;;5052521;28;20017;-41
2023/04/28 12:32:59;;;;;;;0.88;0.40;;;13.40;99.90;;;;;;5052330;28;20108;-45
2023/04/28 12:35:26;;;;;;;1.10;0.57;;;13.40;99.90;;;;;;5052302;28;20104;-41
2023/04/28 12:37:54;;;;;;;0.40;0.32;;;13.40;99.90;;;;;;5052033;28;20021;-42
2023/04/28 12:40:20;;;;;;;0.75;0.40;;;13.40;99.90;;;;;;5052297;28;20021;-42
2023/04/28 12:42:46;;;;;;;0.73;0.47;;;13.40;99.90;;;;;;5051329;28;20052;-44
2023/04/28 12:45:11;;;;;;;1.40;0.60;;;13.40;99.90;;;;;;5052178;28;20592;-41
2023/04/28 12:47:40;;;;;;;2.05;0.70;;;13.40;99.90;;;;;;5051802;28;20028;-41